Terminal Aerodrome Forecast
Issued by NWS Columbia, SC

Home | Current Version | Previous Version | Text Only | Print | Product List | Glossary On
Versions: 1 2 3 4 5 6 7 8 9 10 11 12 13 14 15 16 17 18 19 20 21 22 23 24 25 26 27 28
489
FTUS42 KCAE 300235 AAA
TAFCAE
TAF AMD
KCAE 300235Z 3003/3024 16008KT P6SM BKN250
     FM300600 16006KT P6SM BKN015
     FM301000 15005KT 6SM BR OVC009
     FM301400 18008KT P6SM OVC015
     FM301800 18010KT P6SM BKN040
     FM302000 17010G20KT P6SM BKN050=

USA.gov is the U.S. government's official web portal to all federal, state and local government web resources and services.